TimeCST,TemperatureF,Dew PointF,Humidity,Sea Level PressureIn,VisibilityMPH,Wind Direction,Wind SpeedMPH,Gust SpeedMPH,PrecipitationIn,Events,Conditions,WindDirDegrees,DateUTC
12:15 AM,42.8,29.8,60,30.15,10.0,SSW,8.1,-,N/A,,Scattered Clouds,210,2012-11-15 06:15:00
12:35 AM,42.8,30.0,61,30.15,10.0,SSW,9.2,-,N/A,,Scattered Clouds,200,2012-11-15 06:35:00
12:55 AM,43.0,29.8,60,30.15,10.0,SSW,8.1,-,N/A,,Scattered Clouds,200,2012-11-15 06:55:00
1:15 AM,41.9,30.0,63,30.15,10.0,South,6.9,-,N/A,,Clear,190,2012-11-15 07:15:00
1:35 AM,41.4,30.0,64,30.15,10.0,SSW,9.2,-,N/A,,Clear,200,2012-11-15 07:35:00
1:55 AM,39.2,30.2,70,30.15,10.0,SSW,5.8,-,N/A,,Clear,200,2012-11-15 07:55:00
2:15 AM,40.6,30.6,67,30.15,10.0,SSW,8.1,-,N/A,,Mostly Cloudy,200,2012-11-15 08:15:00
2:35 AM,39.7,30.2,69,30.15,10.0,SW,4.6,-,N/A,,Mostly Cloudy,230,2012-11-15 08:35:00
2:55 AM,38.3,30.2,73,30.16,10.0,SE,3.5,-,N/A,,Mostly Cloudy,130,2012-11-15 08:55:00
3:15 AM,38.8,30.0,71,30.16,10.0,Calm,Calm,-,N/A,,Overcast,0,2012-11-15 09:15:00
3:35 AM,37.8,31.1,77,30.16,10.0,South,3.5,-,N/A,,Mostly Cloudy,180,2012-11-15 09:35:00
3:55 AM,37.4,31.5,79,30.16,10.0,Calm,Calm,-,N/A,,Overcast,0,2012-11-15 09:55:00
4:15 AM,38.8,30.4,72,30.16,10.0,Calm,Calm,-,N/A,,Mostly Cloudy,0,2012-11-15 10:15:00
4:35 AM,36.0,31.6,84,30.17,10.0,Calm,Calm,-,N/A,,Scattered Clouds,0,2012-11-15 10:35:00
4:55 AM,36.7,31.1,80,30.18,10.0,Calm,Calm,-,N/A,,Mostly Cloudy,0,2012-11-15 10:55:00
5:15 AM,34.9,31.5,87,30.19,10.0,Calm,Calm,-,N/A,,Mostly Cloudy,0,2012-11-15 11:15:00
5:35 AM,34.0,30.6,87,30.20,10.0,Calm,Calm,-,N/A,,Overcast,0,2012-11-15 11:35:00
5:55 AM,34.7,30.9,86,30.20,10.0,Calm,Calm,-,N/A,,Overcast,0,2012-11-15 11:55:00
6:15 AM,35.6,30.4,81,30.20,10.0,Calm,Calm,-,N/A,,Overcast,0,2012-11-15 12:15:00
6:35 AM,37.6,31.5,79,30.21,10.0,North,3.5,-,N/A,,Overcast,360,2012-11-15 12:35:00
6:55 AM,39.6,31.6,73,30.23,10.0,North,5.8,-,N/A,,Overcast,350,2012-11-15 12:55:00
7:15 AM,40.1,32.0,73,30.24,10.0,NNW,4.6,-,N/A,,Overcast,340,2012-11-15 13:15:00
7:35 AM,40.3,31.8,72,30.24,10.0,Calm,Calm,-,N/A,,Mostly Cloudy,0,2012-11-15 13:35:00
7:55 AM,38.7,32.0,77,30.26,10.0,NNW,5.8,-,N/A,,Clear,330,2012-11-15 13:55:00
8:15 AM,39.0,32.0,76,30.27,10.0,Calm,Calm,-,N/A,,Clear,0,2012-11-15 14:15:00
8:35 AM,41.0,32.4,71,30.28,10.0,North,5.8,-,N/A,,Clear,350,2012-11-15 14:35:00
8:55 AM,43.0,32.7,67,30.29,10.0,North,8.1,-,N/A,,Scattered Clouds,350,2012-11-15 14:55:00
9:15 AM,44.2,32.4,63,30.30,10.0,North,6.9,-,N/A,,Scattered Clouds,350,2012-11-15 15:15:00
9:35 AM,45.5,32.5,61,30.30,10.0,North,12.7,-,N/A,,Clear,350,2012-11-15 15:35:00
9:55 AM,46.6,32.9,59,30.31,10.0,North,9.2,-,N/A,,Clear,350,2012-11-15 15:55:00
10:15 AM,48.4,31.8,53,30.32,10.0,NNW,12.7,-,N/A,,Clear,340,2012-11-15 16:15:00
10:35 AM,48.9,31.8,52,30.32,10.0,NNW,12.7,-,N/A,,Clear,330,2012-11-15 16:35:00
10:55 AM,50.2,31.8,49,30.33,10.0,NNW,10.4,-,N/A,,Clear,340,2012-11-15 16:55:00
11:15 AM,51.1,31.1,46,30.33,10.0,North,10.4,-,N/A,,Clear,350,2012-11-15 17:15:00
11:35 AM,51.6,31.1,45,30.33,10.0,North,9.2,-,N/A,,Clear,350,2012-11-15 17:35:00
11:55 AM,52.2,30.2,43,30.33,10.0,NNW,11.5,-,N/A,,Clear,340,2012-11-15 17:55:00
12:15 PM,52.0,30.4,44,30.33,10.0,NNW,10.4,16.1,N/A,,Clear,340,2012-11-15 18:15:00
12:35 PM,52.7,29.8,42,30.33,10.0,North,10.4,-,N/A,,Clear,350,2012-11-15 18:35:00
12:55 PM,53.1,29.3,40,30.33,10.0,NNW,10.4,-,N/A,,Clear,340,2012-11-15 18:55:00
1:15 PM,53.6,28.4,38,30.33,10.0,NNW,12.7,-,N/A,,Clear,340,2012-11-15 19:15:00
1:35 PM,53.6,28.6,38,30.32,10.0,NNW,11.5,17.3,N/A,,Clear,340,2012-11-15 19:35:00
1:55 PM,53.6,28.6,38,30.32,10.0,North,12.7,17.3,N/A,,Clear,350,2012-11-15 19:55:00
2:15 PM,53.6,29.1,39,30.32,10.0,NNW,11.5,16.1,N/A,,Clear,330,2012-11-15 20:15:00
2:35 PM,53.4,29.3,40,30.33,10.0,North,10.4,-,N/A,,Clear,350,2012-11-15 20:35:00
2:55 PM,52.9,29.3,40,30.33,10.0,NNW,11.5,-,N/A,,Clear,340,2012-11-15 20:55:00
3:15 PM,52.3,30.0,42,30.34,10.0,NNW,13.8,17.3,N/A,,Clear,340,2012-11-15 21:15:00
3:35 PM,51.8,30.0,43,30.34,10.0,NNW,11.5,-,N/A,,Clear,340,2012-11-15 21:35:00
3:55 PM,50.9,30.0,45,30.35,10.0,North,12.7,-,N/A,,Clear,350,2012-11-15 21:55:00
4:15 PM,49.8,30.2,47,30.36,10.0,North,8.1,-,N/A,,Clear,350,2012-11-15 22:15:00
4:35 PM,48.2,29.7,49,30.37,10.0,North,9.2,-,N/A,,Clear,350,2012-11-15 22:35:00
4:55 PM,45.3,29.8,55,30.38,10.0,NNW,6.9,-,N/A,,Clear,340,2012-11-15 22:55:00
5:15 PM,43.3,29.5,58,30.38,10.0,NNW,6.9,-,N/A,,Clear,330,2012-11-15 23:15:00
5:35 PM,41.5,29.3,62,30.39,10.0,NNW,6.9,-,N/A,,Clear,330,2012-11-15 23:35:00
5:55 PM,40.1,28.8,64,30.39,10.0,NNW,6.9,-,N/A,,Clear,330,2012-11-15 23:55:00
6:15 PM,38.3,28.6,68,30.40,10.0,NNW,5.8,-,N/A,,Clear,340,2012-11-16 00:15:00
6:35 PM,36.0,27.5,71,30.41,10.0,NW,3.5,-,N/A,,Clear,320,2012-11-16 00:35:00
6:55 PM,32.5,27.5,82,30.42,10.0,Calm,Calm,-,N/A,,Clear,0,2012-11-16 00:55:00
7:15 PM,34.3,27.9,77,30.42,10.0,Calm,Calm,-,N/A,,Clear,0,2012-11-16 01:15:00
7:35 PM,32.2,27.5,83,30.42,10.0,NNW,3.5,-,N/A,,Clear,330,2012-11-16 01:35:00
7:55 PM,32.7,28.0,83,30.42,10.0,Calm,Calm,-,N/A,,Clear,0,2012-11-16 01:55:00
8:15 PM,31.1,25.7,80,30.42,10.0,Calm,Calm,-,N/A,,Clear,0,2012-11-16 02:15:00
8:35 PM,32.2,27.3,82,30.43,10.0,Calm,Calm,-,N/A,,Clear,0,2012-11-16 02:35:00
8:55 PM,31.6,26.6,82,30.43,10.0,Calm,Calm,-,N/A,,Clear,0,2012-11-16 02:55:00
9:15 PM,30.6,25.9,83,30.44,10.0,Calm,Calm,-,N/A,,Clear,0,2012-11-16 03:15:00
9:35 PM,28.6,25.7,89,30.44,10.0,Calm,Calm,-,N/A,,Clear,0,2012-11-16 03:35:00
9:55 PM,28.8,26.2,90,30.44,10.0,Calm,Calm,-,N/A,,Clear,0,2012-11-16 03:55:00
10:15 PM,28.0,26.1,92,30.45,10.0,North,3.5,-,N/A,,Clear,350,2012-11-16 04:15:00
10:35 PM,25.3,23.7,94,30.45,10.0,Calm,Calm,-,N/A,,Clear,0,2012-11-16 04:35:00
10:55 PM,25.2,23.4,93,30.45,10.0,Calm,Calm,-,N/A,,Clear,0,2012-11-16 04:55:00
11:15 PM,26.4,24.8,94,30.45,10.0,Calm,Calm,-,N/A,,Clear,0,2012-11-16 05:15:00
11:35 PM,23.7,21.9,93,30.45,10.0,Calm,Calm,-,N/A,,Clear,0,2012-11-16 05:35:00
11:55 PM,23.5,21.7,93,30.46,10.0,Calm,Calm,-,N/A,,Clear,0,2012-11-16 05:55:00